sensor_id;sensor_type;location;lat;lon;timestamp;temperature;humidity
23233;DHT22;11785;49.500;8.288;2023-02-25T00:02:07;5.40;99.90
23233;DHT22;11785;49.500;8.288;2023-02-25T00:04:33;5.30;99.90
23233;DHT22;11785;49.500;8.288;2023-02-25T00:06:59;5.30;99.90
23233;DHT22;11785;49.500;8.288;2023-02-25T00:09:24;5.20;99.90
23233;DHT22;11785;49.500;8.288;2023-02-25T00:11:51;5.20;99.90
23233;DHT22;11785;49.500;8.288;2023-02-25T00:14:17;5.10;99.90
23233;DHT22;11785;49.500;8.288;2023-02-25T00:16:42;5.00;99.90
23233;DHT22;11785;49.500;8.288;2023-02-25T00:19:08;5.00;99.90
23233;DHT22;11785;49.500;8.288;2023-02-25T00:21:35;4.80;99.90
23233;DHT22;11785;49.500;8.288;2023-02-25T00:24:00;4.70;99.90
23233;DHT22;11785;49.500;8.288;2023-02-25T00:26:26;4.70;99.90
23233;DHT22;11785;49.500;8.288;2023-02-25T00:28:52;4.50;99.90
23233;DHT22;11785;49.500;8.288;2023-02-25T00:31:20;4.40;99.90
23233;DHT22;11785;49.500;8.288;2023-02-25T00:33:47;4.30;99.90
23233;DHT22;11785;49.500;8.288;2023-02-25T00:36:15;4.30;99.90
23233;DHT22;11785;49.500;8.288;2023-02-25T00:38:43;4.40;99.90
23233;DHT22;11785;49.500;8.288;2023-02-25T00:41:13;4.40;99.90
23233;DHT22;11785;49.500;8.288;2023-02-25T00:43:42;4.40;99.90
23233;DHT22;11785;49.500;8.288;2023-02-25T00:46:09;4.40;99.90
23233;DHT22;11785;49.500;8.288;2023-02-25T00:48:35;4.30;99.90
23233;DHT22;11785;49.500;8.288;2023-02-25T00:51:30;4.20;99.90
23233;DHT22;11785;49.500;8.288;2023-02-25T00:53:57;4.20;99.90
23233;DHT22;11785;49.500;8.288;2023-02-25T00:56:23;4.10;99.90
23233;DHT22;11785;49.500;8.288;2023-02-25T00:58:51;4.00;99.90
23233;DHT22;11785;49.500;8.288;2023-02-25T01:01:24;3.90;99.90
23233;DHT22;11785;49.500;8.288;2023-02-25T01:03:51;3.80;99.90
23233;DHT22;11785;49.500;8.288;2023-02-25T01:06:17;3.90;99.90
23233;DHT22;11785;49.500;8.288;2023-02-25T01:08:43;3.90;99.90
23233;DHT22;11785;49.500;8.288;2023-02-25T01:11:17;3.80;99.90
23233;DHT22;11785;49.500;8.288;2023-02-25T01:13:49;3.70;99.90
23233;DHT22;11785;49.500;8.288;2023-02-25T01:16:18;3.60;99.90
23233;DHT22;11785;49.500;8.288;2023-02-25T01:18:44;3.50;99.90
23233;DHT22;11785;49.500;8.288;2023-02-25T01:21:18;3.50;99.90
23233;DHT22;11785;49.500;8.288;2023-02-25T01:23:47;3.40;99.90
23233;DHT22;11785;49.500;8.288;2023-02-25T01:26:13;3.40;99.90
23233;DHT22;11785;49.500;8.288;2023-02-25T01:28:39;3.40;99.90
23233;DHT22;11785;49.500;8.288;2023-02-25T01:31:05;3.40;99.90
23233;DHT22;11785;49.500;8.288;2023-02-25T01:33:33;3.30;99.90
23233;DHT22;11785;49.500;8.288;2023-02-25T01:36:04;3.30;99.90
23233;DHT22;11785;49.500;8.288;2023-02-25T01:38:30;3.20;99.90
23233;DHT22;11785;49.500;8.288;2023-02-25T01:40:57;3.30;99.90
23233;DHT22;11785;49.500;8.288;2023-02-25T01:43:23;3.40;99.90
23233;DHT22;11785;49.500;8.288;2023-02-25T01:45:49;3.50;99.90
23233;DHT22;11785;49.500;8.288;2023-02-25T01:48:17;3.70;99.90
23233;DHT22;11785;49.500;8.288;2023-02-25T01:50:49;3.70;99.90
23233;DHT22;11785;49.500;8.288;2023-02-25T01:53:21;3.80;99.90
23233;DHT22;11785;49.500;8.288;2023-02-25T01:55:48;3.80;99.90
23233;DHT22;11785;49.500;8.288;2023-02-25T01:58:14;3.90;99.90
23233;DHT22;11785;49.500;8.288;2023-02-25T02:00:41;3.90;99.90
23233;DHT22;11785;49.500;8.288;2023-02-25T02:03:08;3.90;99.90
23233;DHT22;11785;49.500;8.288;2023-02-25T02:05:48;3.80;99.90
23233;DHT22;11785;49.500;8.288;2023-02-25T02:08:15;3.70;99.90
23233;DHT22;11785;49.500;8.288;2023-02-25T02:10:41;3.70;99.90
23233;DHT22;11785;49.500;8.288;2023-02-25T02:13:06;3.60;99.90
23233;DHT22;11785;49.500;8.288;2023-02-25T02:15:37;3.40;99.90
23233;DHT22;11785;49.500;8.288;2023-02-25T02:18:05;3.30;99.90
23233;DHT22;11785;49.500;8.288;2023-02-25T02:25:44;3.20;99.90
23233;DHT22;11785;49.500;8.288;2023-02-25T02:36:52;3.60;99.90
23233;DHT22;11785;49.500;8.288;2023-02-25T02:44:31;3.70;99.90
23233;DHT22;11785;49.500;8.288;2023-02-25T02:47:09;3.80;99.90
23233;DHT22;11785;49.500;8.288;2023-02-25T02:49:47;3.80;99.90
23233;DHT22;11785;49.500;8.288;2023-02-25T02:52:27;3.80;99.90
23233;DHT22;11785;49.500;8.288;2023-02-25T02:55:19;3.80;99.90
23233;DHT22;11785;49.500;8.288;2023-02-25T02:57:48;3.70;99.90
23233;DHT22;11785;49.500;8.288;2023-02-25T03:00:18;3.70;99.90
23233;DHT22;11785;49.500;8.288;2023-02-25T03:02:50;3.60;99.90
23233;DHT22;11785;49.500;8.288;2023-02-25T03:05:17;3.50;99.90
23233;DHT22;11785;49.500;8.288;2023-02-25T03:08:13;3.40;99.90
23233;DHT22;11785;49.500;8.288;2023-02-25T03:10:39;3.20;99.90
23233;DHT22;11785;49.500;8.288;2023-02-25T03:13:05;3.20;99.90
23233;DHT22;11785;49.500;8.288;2023-02-25T03:15:32;3.20;99.90
23233;DHT22;11785;49.500;8.288;2023-02-25T03:18:06;3.20;99.90
23233;DHT22;11785;49.500;8.288;2023-02-25T03:20:40;3.30;99.90
23233;DHT22;11785;49.500;8.288;2023-02-25T03:23:11;3.50;99.90
23233;DHT22;11785;49.500;8.288;2023-02-25T03:25:42;3.60;99.90
23233;DHT22;11785;49.500;8.288;2023-02-25T03:28:29;3.70;99.90
23233;DHT22;11785;49.500;8.288;2023-02-25T03:31:17;3.80;99.90
23233;DHT22;11785;49.500;8.288;2023-02-25T03:33:57;3.90;99.90
23233;DHT22;11785;49.500;8.288;2023-02-25T03:39:09;3.90;99.90
23233;DHT22;11785;49.500;8.288;2023-02-25T03:41:38;3.90;99.90
23233;DHT22;11785;49.500;8.288;2023-02-25T03:44:10;3.90;99.90
23233;DHT22;11785;49.500;8.288;2023-02-25T03:46:39;3.90;99.90
23233;DHT22;11785;49.500;8.288;2023-02-25T03:49:08;3.90;99.90
23233;DHT22;11785;49.500;8.288;2023-02-25T03:51:36;3.90;99.90
23233;DHT22;11785;49.500;8.288;2023-02-25T03:54:03;3.90;99.90
23233;DHT22;11785;49.500;8.288;2023-02-25T03:56:42;4.00;99.90
23233;DHT22;11785;49.500;8.288;2023-02-25T03:59:08;4.00;99.90
23233;DHT22;11785;49.500;8.288;2023-02-25T04:01:34;4.20;99.90
23233;DHT22;11785;49.500;8.288;2023-02-25T04:04:01;4.20;99.90
23233;DHT22;11785;49.500;8.288;2023-02-25T04:06:27;4.30;99.90
23233;DHT22;11785;49.500;8.288;2023-02-25T04:08:52;4.50;99.90
23233;DHT22;11785;49.500;8.288;2023-02-25T04:11:18;4.60;99.90
23233;DHT22;11785;49.500;8.288;2023-02-25T04:13:43;4.60;99.90
23233;DHT22;11785;49.500;8.288;2023-02-25T04:16:09;4.60;99.90
23233;DHT22;11785;49.500;8.288;2023-02-25T04:18:35;4.60;99.90
23233;DHT22;11785;49.500;8.288;2023-02-25T04:21:00;4.70;99.90
23233;DHT22;11785;49.500;8.288;2023-02-25T04:23:26;4.70;99.90
23233;DHT22;11785;49.500;8.288;2023-02-25T04:25:51;4.70;99.90
23233;DHT22;11785;49.500;8.288;2023-02-25T04:28:17;4.70;99.90
23233;DHT22;11785;49.500;8.288;2023-02-25T04:30:42;4.80;99.90
23233;DHT22;11785;49.500;8.288;2023-02-25T04:33:11;4.80;99.90
23233;DHT22;11785;49.500;8.288;2023-02-25T04:35:37;4.80;99.90
23233;DHT22;11785;49.500;8.288;2023-02-25T04:38:03;4.90;99.90
23233;DHT22;11785;49.500;8.288;2023-02-25T04:40:28;4.90;99.90
23233;DHT22;11785;49.500;8.288;2023-02-25T04:42:54;4.90;99.90
23233;DHT22;11785;49.500;8.288;2023-02-25T04:45:20;4.90;99.90
23233;DHT22;11785;49.500;8.288;2023-02-25T04:47:51;4.80;99.90
23233;DHT22;11785;49.500;8.288;2023-02-25T04:50:18;4.80;99.90
23233;DHT22;11785;49.500;8.288;2023-02-25T04:52:43;4.80;99.90
23233;DHT22;11785;49.500;8.288;2023-02-25T04:55:09;4.80;99.90
23233;DHT22;11785;49.500;8.288;2023-02-25T04:57:38;4.70;99.90
23233;DHT22;11785;49.500;8.288;2023-02-25T05:00:11;4.80;99.90
23233;DHT22;11785;49.500;8.288;2023-02-25T05:02:40;4.90;99.90
23233;DHT22;11785;49.500;8.288;2023-02-25T05:05:06;4.90;99.90
23233;DHT22;11785;49.500;8.288;2023-02-25T05:07:32;4.90;99.90
23233;DHT22;11785;49.500;8.288;2023-02-25T05:09:57;5.00;99.90
23233;DHT22;11785;49.500;8.288;2023-02-25T05:12:23;5.00;99.30
23233;DHT22;11785;49.500;8.288;2023-02-25T05:14:49;5.10;99.00
23233;DHT22;11785;49.500;8.288;2023-02-25T05:17:14;5.10;98.80
23233;DHT22;11785;49.500;8.288;2023-02-25T05:19:40;5.10;98.10
23233;DHT22;11785;49.500;8.288;2023-02-25T05:22:05;5.10;98.30
23233;DHT22;11785;49.500;8.288;2023-02-25T05:24:33;5.10;98.40
23233;DHT22;11785;49.500;8.288;2023-02-25T05:26:58;5.10;98.30
23233;DHT22;11785;49.500;8.288;2023-02-25T05:29:29;5.10;97.80
23233;DHT22;11785;49.500;8.288;2023-02-25T05:31:54;5.10;97.70
23233;DHT22;11785;49.500;8.288;2023-02-25T05:34:20;5.20;97.00
23233;DHT22;11785;49.500;8.288;2023-02-25T05:36:47;5.10;97.50
23233;DHT22;11785;49.500;8.288;2023-02-25T05:39:13;5.20;97.20
23233;DHT22;11785;49.500;8.288;2023-02-25T05:41:39;5.20;97.10
23233;DHT22;11785;49.500;8.288;2023-02-25T05:44:05;5.10;97.40
23233;DHT22;11785;49.500;8.288;2023-02-25T05:46:32;5.20;97.20
23233;DHT22;11785;49.500;8.288;2023-02-25T05:48:57;5.10;97.70
23233;DHT22;11785;49.500;8.288;2023-02-25T05:51:23;5.10;98.00
23233;DHT22;11785;49.500;8.288;2023-02-25T05:53:50;5.00;98.40
23233;DHT22;11785;49.500;8.288;2023-02-25T05:56:20;5.00;98.40
23233;DHT22;11785;49.500;8.288;2023-02-25T05:58:47;5.00;98.20
23233;DHT22;11785;49.500;8.288;2023-02-25T06:01:16;5.00;97.80
23233;DHT22;11785;49.500;8.288;2023-02-25T06:03:43;5.00;97.60
23233;DHT22;11785;49.500;8.288;2023-02-25T06:06:11;5.00;97.40
23233;DHT22;11785;49.500;8.288;2023-02-25T06:08:37;5.00;97.00
23233;DHT22;11785;49.500;8.288;2023-02-25T06:11:05;5.00;97.20
23233;DHT22;11785;49.500;8.288;2023-02-25T06:13:31;5.00;97.10
23233;DHT22;11785;49.500;8.288;2023-02-25T06:15:57;5.00;97.20
23233;DHT22;11785;49.500;8.288;2023-02-25T06:18:22;5.00;97.20
23233;DHT22;11785;49.500;8.288;2023-02-25T06:20:48;5.00;97.30
23233;DHT22;11785;49.500;8.288;2023-02-25T06:23:14;5.00;97.30
23233;DHT22;11785;49.500;8.288;2023-02-25T06:25:40;5.00;97.50
23233;DHT22;11785;49.500;8.288;2023-02-25T06:28:06;5.00;97.20
23233;DHT22;11785;49.500;8.288;2023-02-25T06:30:31;5.00;97.30
23233;DHT22;11785;49.500;8.288;2023-02-25T06:32:57;4.90;98.00
23233;DHT22;11785;49.500;8.288;2023-02-25T06:35:23;4.90;97.80
23233;DHT22;11785;49.500;8.288;2023-02-25T06:37:56;4.90;97.80
23233;DHT22;11785;49.500;8.288;2023-02-25T06:40:22;4.90;98.00
23233;DHT22;11785;49.500;8.288;2023-02-25T06:42:48;5.00;97.30
23233;DHT22;11785;49.500;8.288;2023-02-25T06:45:14;5.00;97.00
23233;DHT22;11785;49.500;8.288;2023-02-25T06:47:39;5.10;96.70
23233;DHT22;11785;49.500;8.288;2023-02-25T06:50:06;5.20;95.90
23233;DHT22;11785;49.500;8.288;2023-02-25T06:52:32;5.20;95.60
23233;DHT22;11785;49.500;8.288;2023-02-25T06:54:57;5.30;95.70
23233;DHT22;11785;49.500;8.288;2023-02-25T06:57:23;5.30;95.60
23233;DHT22;11785;49.500;8.288;2023-02-25T06:59:48;5.30;95.70
23233;DHT22;11785;49.500;8.288;2023-02-25T07:02:14;5.30;95.90
23233;DHT22;11785;49.500;8.288;2023-02-25T07:04:40;5.20;95.80
23233;DHT22;11785;49.500;8.288;2023-02-25T07:07:06;5.20;96.00
23233;DHT22;11785;49.500;8.288;2023-02-25T07:09:32;5.20;95.80
23233;DHT22;11785;49.500;8.288;2023-02-25T07:11:58;5.20;95.60
23233;DHT22;11785;49.500;8.288;2023-02-25T07:14:23;5.20;95.60
23233;DHT22;11785;49.500;8.288;2023-02-25T07:16:49;5.10;95.90
23233;DHT22;11785;49.500;8.288;2023-02-25T07:19:14;5.10;96.20
23233;DHT22;11785;49.500;8.288;2023-02-25T07:21:41;5.00;96.80
23233;DHT22;11785;49.500;8.288;2023-02-25T07:24:08;4.90;97.40
23233;DHT22;11785;49.500;8.288;2023-02-25T07:26:34;4.80;97.90
23233;DHT22;11785;49.500;8.288;2023-02-25T07:28:59;4.70;98.20
23233;DHT22;11785;49.500;8.288;2023-02-25T07:31:26;4.60;98.20
23233;DHT22;11785;49.500;8.288;2023-02-25T07:33:53;4.70;97.70
23233;DHT22;11785;49.500;8.288;2023-02-25T07:36:19;4.70;97.70
23233;DHT22;11785;49.500;8.288;2023-02-25T07:38:46;4.70;97.80
23233;DHT22;11785;49.500;8.288;2023-02-25T07:41:16;4.70;97.80
23233;DHT22;11785;49.500;8.288;2023-02-25T07:43:42;4.80;97.50
23233;DHT22;11785;49.500;8.288;2023-02-25T07:46:09;4.90;96.90
23233;DHT22;11785;49.500;8.288;2023-02-25T07:48:35;5.00;96.40
23233;DHT22;11785;49.500;8.288;2023-02-25T07:51:09;5.20;95.60
23233;DHT22;11785;49.500;8.288;2023-02-25T07:53:35;5.30;95.30
23233;DHT22;11785;49.500;8.288;2023-02-25T07:56:01;5.50;94.50
23233;DHT22;11785;49.500;8.288;2023-02-25T07:58:26;5.60;94.20
23233;DHT22;11785;49.500;8.288;2023-02-25T08:00:53;5.70;93.30
23233;DHT22;11785;49.500;8.288;2023-02-25T08:03:19;5.80;93.00
23233;DHT22;11785;49.500;8.288;2023-02-25T08:05:49;5.90;92.30
23233;DHT22;11785;49.500;8.288;2023-02-25T08:08:15;5.90;91.90
23233;DHT22;11785;49.500;8.288;2023-02-25T08:10:40;6.00;92.10
23233;DHT22;11785;49.500;8.288;2023-02-25T08:13:06;6.10;91.90
23233;DHT22;11785;49.500;8.288;2023-02-25T08:15:31;6.20;90.70
23233;DHT22;11785;49.500;8.288;2023-02-25T08:17:57;6.30;90.30
23233;DHT22;11785;49.500;8.288;2023-02-25T08:20:23;6.40;90.40
23233;DHT22;11785;49.500;8.288;2023-02-25T08:22:48;6.40;90.60
23233;DHT22;11785;49.500;8.288;2023-02-25T08:25:14;6.50;90.10
23233;DHT22;11785;49.500;8.288;2023-02-25T08:27:40;6.40;88.90
23233;DHT22;11785;49.500;8.288;2023-02-25T08:30:06;6.40;89.30
23233;DHT22;11785;49.500;8.288;2023-02-25T08:32:34;6.40;89.10
23233;DHT22;11785;49.500;8.288;2023-02-25T08:35:00;6.50;87.70
23233;DHT22;11785;49.500;8.288;2023-02-25T08:37:25;6.50;89.60
23233;DHT22;11785;49.500;8.288;2023-02-25T08:39:54;6.50;89.70
23233;DHT22;11785;49.500;8.288;2023-02-25T08:42:20;6.60;88.50
23233;DHT22;11785;49.500;8.288;2023-02-25T08:44:47;6.70;87.70
23233;DHT22;11785;49.500;8.288;2023-02-25T08:47:13;6.80;87.80
23233;DHT22;11785;49.500;8.288;2023-02-25T08:49:38;7.00;85.40
23233;DHT22;11785;49.500;8.288;2023-02-25T08:52:05;7.10;84.40
23233;DHT22;11785;49.500;8.288;2023-02-25T08:54:30;7.10;83.60
23233;DHT22;11785;49.500;8.288;2023-02-25T08:56:57;7.20;83.70
23233;DHT22;11785;49.500;8.288;2023-02-25T08:59:24;7.00;85.60
23233;DHT22;11785;49.500;8.288;2023-02-25T09:01:50;6.90;85.20
23233;DHT22;11785;49.500;8.288;2023-02-25T09:04:18;6.80;86.70
23233;DHT22;11785;49.500;8.288;2023-02-25T09:06:44;6.80;86.90
23233;DHT22;11785;49.500;8.288;2023-02-25T09:09:17;7.00;85.20
23233;DHT22;11785;49.500;8.288;2023-02-25T09:11:43;7.20;81.80
23233;DHT22;11785;49.500;8.288;2023-02-25T09:14:09;7.40;80.10
23233;DHT22;11785;49.500;8.288;2023-02-25T09:16:35;7.40;80.00
23233;DHT22;11785;49.500;8.288;2023-02-25T09:19:00;7.20;79.80
23233;DHT22;11785;49.500;8.288;2023-02-25T09:21:26;7.20;81.20
23233;DHT22;11785;49.500;8.288;2023-02-25T09:24:14;7.20;81.60
23233;DHT22;11785;49.500;8.288;2023-02-25T09:26:40;7.00;82.00
23233;DHT22;11785;49.500;8.288;2023-02-25T09:29:18;6.90;82.70
23233;DHT22;11785;49.500;8.288;2023-02-25T09:31:44;6.80;84.20
23233;DHT22;11785;49.500;8.288;2023-02-25T09:34:10;6.70;85.80
23233;DHT22;11785;49.500;8.288;2023-02-25T09:36:38;6.70;86.10
23233;DHT22;11785;49.500;8.288;2023-02-25T09:39:04;6.60;87.90
23233;DHT22;11785;49.500;8.288;2023-02-25T09:41:55;6.60;89.40
23233;DHT22;11785;49.500;8.288;2023-02-25T09:44:31;6.50;90.60
23233;DHT22;11785;49.500;8.288;2023-02-25T09:47:02;6.60;90.60
23233;DHT22;11785;49.500;8.288;2023-02-25T09:49:38;6.70;89.40
23233;DHT22;11785;49.500;8.288;2023-02-25T09:52:15;6.70;89.80
23233;DHT22;11785;49.500;8.288;2023-02-25T09:54:48;6.90;88.00
23233;DHT22;11785;49.500;8.288;2023-02-25T09:57:17;6.90;87.20
23233;DHT22;11785;49.500;8.288;2023-02-25T09:59:45;7.10;86.70
23233;DHT22;11785;49.500;8.288;2023-02-25T10:03:18;7.20;85.30
23233;DHT22;11785;49.500;8.288;2023-02-25T10:05:45;7.30;84.50
23233;DHT22;11785;49.500;8.288;2023-02-25T10:11:06;7.40;82.20
23233;DHT22;11785;49.500;8.288;2023-02-25T10:13:48;7.50;81.90
23233;DHT22;11785;49.500;8.288;2023-02-25T10:22:25;7.70;78.30
23233;DHT22;11785;49.500;8.288;2023-02-25T10:25:11;7.90;78.60
23233;DHT22;11785;49.500;8.288;2023-02-25T10:27:43;8.10;76.20
23233;DHT22;11785;49.500;8.288;2023-02-25T10:30:19;8.00;76.90
23233;DHT22;11785;49.500;8.288;2023-02-25T10:32:47;8.10;76.50
23233;DHT22;11785;49.500;8.288;2023-02-25T10:35:16;8.20;75.80
23233;DHT22;11785;49.500;8.288;2023-02-25T10:37:43;8.10;75.80
23233;DHT22;11785;49.500;8.288;2023-02-25T10:40:15;8.10;75.90
23233;DHT22;11785;49.500;8.288;2023-02-25T10:42:45;8.00;75.50
23233;DHT22;11785;49.500;8.288;2023-02-25T10:45:12;7.80;77.00
23233;DHT22;11785;49.500;8.288;2023-02-25T10:47:45;7.70;80.00
23233;DHT22;11785;49.500;8.288;2023-02-25T10:50:24;7.50;81.40
23233;DHT22;11785;49.500;8.288;2023-02-25T10:53:03;7.40;82.80
23233;DHT22;11785;49.500;8.288;2023-02-25T10:57:57;7.30;81.70
23233;DHT22;11785;49.500;8.288;2023-02-25T11:00:31;7.20;82.20
23233;DHT22;11785;49.500;8.288;2023-02-25T11:02:59;7.20;81.70
23233;DHT22;11785;49.500;8.288;2023-02-25T11:05:39;7.20;81.60
23233;DHT22;11785;49.500;8.288;2023-02-25T11:08:27;7.40;79.90
23233;DHT22;11785;49.500;8.288;2023-02-25T11:11:18;7.50;78.70
23233;DHT22;11785;49.500;8.288;2023-02-25T11:13:59;7.70;76.40
23233;DHT22;11785;49.500;8.288;2023-02-25T11:16:26;8.00;75.20
23233;DHT22;11785;49.500;8.288;2023-02-25T11:18:55;8.20;71.90
23233;DHT22;11785;49.500;8.288;2023-02-25T11:21:34;8.10;70.30
23233;DHT22;11785;49.500;8.288;2023-02-25T11:24:05;7.90;71.10
23233;DHT22;11785;49.500;8.288;2023-02-25T11:26:35;7.90;71.20
23233;DHT22;11785;49.500;8.288;2023-02-25T11:29:13;7.80;72.50
23233;DHT22;11785;49.500;8.288;2023-02-25T11:31:41;7.70;72.60
23233;DHT22;11785;49.500;8.288;2023-02-25T11:34:23;8.10;69.60
23233;DHT22;11785;49.500;8.288;2023-02-25T11:36:49;8.70;64.70
23233;DHT22;11785;49.500;8.288;2023-02-25T11:39:27;9.10;62.00
23233;DHT22;11785;49.500;8.288;2023-02-25T11:42:00;9.40;59.90
23233;DHT22;11785;49.500;8.288;2023-02-25T11:44:39;9.00;59.90
23233;DHT22;11785;49.500;8.288;2023-02-25T11:47:21;8.80;61.80
23233;DHT22;11785;49.500;8.288;2023-02-25T11:50:25;8.70;63.10
23233;DHT22;11785;49.500;8.288;2023-02-25T12:00:59;8.00;66.40
23233;DHT22;11785;49.500;8.288;2023-02-25T12:03:54;8.10;66.40
23233;DHT22;11785;49.500;8.288;2023-02-25T12:25:50;8.80;60.40
23233;DHT22;11785;49.500;8.288;2023-02-25T12:31:25;11.20;59.30
23233;DHT22;11785;49.500;8.288;2023-02-25T12:34:23;11.80;59.00
23233;DHT22;11785;49.500;8.288;2023-02-25T12:50:52;9.50;59.60
23233;DHT22;11785;49.500;8.288;2023-02-25T12:54:03;9.50;59.60
23233;DHT22;11785;49.500;8.288;2023-02-25T13:12:59;8.70;59.80
23233;DHT22;11785;49.500;8.288;2023-02-25T13:16:08;8.90;59.80
23233;DHT22;11785;49.500;8.288;2023-02-25T13:29:47;9.60;59.50
23233;DHT22;11785;49.500;8.288;2023-02-25T13:51:30;8.30;64.20
23233;DHT22;11785;49.500;8.288;2023-02-25T13:54:18;8.20;64.70
23233;DHT22;11785;49.500;8.288;2023-02-25T13:56:55;8.80;62.00
23233;DHT22;11785;49.500;8.288;2023-02-25T14:02:45;8.70;59.90
23233;DHT22;11785;49.500;8.288;2023-02-25T14:14:05;11.80;59.30
23233;DHT22;11785;49.500;8.288;2023-02-25T14:25:16;9.30;59.90
23233;DHT22;11785;49.500;8.288;2023-02-25T14:27:49;8.80;62.50
23233;DHT22;11785;49.500;8.288;2023-02-25T14:30:30;8.30;64.70
23233;DHT22;11785;49.500;8.288;2023-02-25T14:33:23;8.00;65.10
23233;DHT22;11785;49.500;8.288;2023-02-25T14:47:55;8.70;59.90
23233;DHT22;11785;49.500;8.288;2023-02-25T14:50:29;12.10;59.10
23233;DHT22;11785;49.500;8.288;2023-02-25T14:55:59;14.40;58.30
23233;DHT22;11785;49.500;8.288;2023-02-25T15:04:29;9.20;59.70
23233;DHT22;11785;49.500;8.288;2023-02-25T15:10:01;7.90;68.30
23233;DHT22;11785;49.500;8.288;2023-02-25T15:21:41;6.40;89.70
23233;DHT22;11785;49.500;8.288;2023-02-25T15:26:48;6.10;92.30
23233;DHT22;11785;49.500;8.288;2023-02-25T15:35:03;6.30;90.80
23233;DHT22;11785;49.500;8.288;2023-02-25T15:42:55;8.50;68.80
23233;DHT22;11785;49.500;8.288;2023-02-25T16:09:04;10.40;59.60
23233;DHT22;11785;49.500;8.288;2023-02-25T16:11:37;9.70;59.80
23233;DHT22;11785;49.500;8.288;2023-02-25T16:16:46;8.40;64.50
23233;DHT22;11785;49.500;8.288;2023-02-25T16:19:16;7.70;71.60
23233;DHT22;11785;49.500;8.288;2023-02-25T16:21:50;7.50;74.10
23233;DHT22;11785;49.500;8.288;2023-02-25T16:24:17;7.40;75.50
23233;DHT22;11785;49.500;8.288;2023-02-25T16:27:00;7.10;77.90
23233;DHT22;11785;49.500;8.288;2023-02-25T16:40:49;6.10;85.80
23233;DHT22;11785;49.500;8.288;2023-02-25T16:43:23;5.90;87.20
23233;DHT22;11785;49.500;8.288;2023-02-25T16:45:56;5.90;87.60
23233;DHT22;11785;49.500;8.288;2023-02-25T16:48:44;5.80;89.00
23233;DHT22;11785;49.500;8.288;2023-02-25T16:51:26;5.80;89.40
23233;DHT22;11785;49.500;8.288;2023-02-25T16:56:42;5.70;90.70
23233;DHT22;11785;49.500;8.288;2023-02-25T17:01:36;5.50;92.90
23233;DHT22;11785;49.500;8.288;2023-02-25T17:04:14;5.40;92.90
23233;DHT22;11785;49.500;8.288;2023-02-25T17:06:42;5.20;94.20
23233;DHT22;11785;49.500;8.288;2023-02-25T17:09:21;5.10;94.60
23233;DHT22;11785;49.500;8.288;2023-02-25T17:11:53;4.90;95.50
23233;DHT22;11785;49.500;8.288;2023-02-25T17:14:20;4.80;95.30
23233;DHT22;11785;49.500;8.288;2023-02-25T17:16:46;4.80;95.50
23233;DHT22;11785;49.500;8.288;2023-02-25T17:19:15;4.70;96.20
23233;DHT22;11785;49.500;8.288;2023-02-25T17:21:43;4.60;96.70
23233;DHT22;11785;49.500;8.288;2023-02-25T17:24:16;4.70;96.30
23233;DHT22;11785;49.500;8.288;2023-02-25T17:26:46;4.70;96.20
23233;DHT22;11785;49.500;8.288;2023-02-25T17:29:14;4.70;96.20
23233;DHT22;11785;49.500;8.288;2023-02-25T17:31:46;4.70;96.30
23233;DHT22;11785;49.500;8.288;2023-02-25T17:34:14;4.70;96.60
23233;DHT22;11785;49.500;8.288;2023-02-25T17:36:40;4.70;96.70
23233;DHT22;11785;49.500;8.288;2023-02-25T17:39:11;4.70;96.10
23233;DHT22;11785;49.500;8.288;2023-02-25T17:41:39;4.70;96.30
23233;DHT22;11785;49.500;8.288;2023-02-25T17:44:09;4.70;96.50
23233;DHT22;11785;49.500;8.288;2023-02-25T17:46:40;4.60;96.80
23233;DHT22;11785;49.500;8.288;2023-02-25T17:49:26;4.50;96.70
23233;DHT22;11785;49.500;8.288;2023-02-25T17:51:58;4.50;96.20
23233;DHT22;11785;49.500;8.288;2023-02-25T17:54:26;4.40;96.70
23233;DHT22;11785;49.500;8.288;2023-02-25T17:56:58;4.40;96.20
23233;DHT22;11785;49.500;8.288;2023-02-25T18:01:57;4.20;97.20
23233;DHT22;11785;49.500;8.288;2023-02-25T18:04:41;4.10;97.30
23233;DHT22;11785;49.500;8.288;2023-02-25T18:07:20;4.00;96.90
23233;DHT22;11785;49.500;8.288;2023-02-25T18:09:46;3.90;96.80
23233;DHT22;11785;49.500;8.288;2023-02-25T18:12:31;3.90;95.90
23233;DHT22;11785;49.500;8.288;2023-02-25T18:14:59;3.80;95.00
23233;DHT22;11785;49.500;8.288;2023-02-25T18:17:30;3.80;94.30
23233;DHT22;11785;49.500;8.288;2023-02-25T18:20:03;3.70;93.70
23233;DHT22;11785;49.500;8.288;2023-02-25T18:22:46;3.60;94.50
23233;DHT22;11785;49.500;8.288;2023-02-25T18:27:55;3.50;94.60
23233;DHT22;11785;49.500;8.288;2023-02-25T18:30:23;3.40;94.50
23233;DHT22;11785;49.500;8.288;2023-02-25T18:32:50;3.40;93.90
23233;DHT22;11785;49.500;8.288;2023-02-25T18:35:17;3.40;94.10
23233;DHT22;11785;49.500;8.288;2023-02-25T18:37:45;3.40;93.70
23233;DHT22;11785;49.500;8.288;2023-02-25T18:40:38;3.40;93.40
23233;DHT22;11785;49.500;8.288;2023-02-25T18:43:05;3.40;94.20
23233;DHT22;11785;49.500;8.288;2023-02-25T18:45:32;3.20;94.80
23233;DHT22;11785;49.500;8.288;2023-02-25T18:47:58;3.10;95.50
23233;DHT22;11785;49.500;8.288;2023-02-25T18:50:31;3.10;95.40
23233;DHT22;11785;49.500;8.288;2023-02-25T18:52:57;3.10;95.30
23233;DHT22;11785;49.500;8.288;2023-02-25T18:55:28;3.10;95.60
23233;DHT22;11785;49.500;8.288;2023-02-25T18:57:54;3.20;95.00
23233;DHT22;11785;49.500;8.288;2023-02-25T19:00:22;3.20;95.20
23233;DHT22;11785;49.500;8.288;2023-02-25T19:03:01;3.20;95.50
23233;DHT22;11785;49.500;8.288;2023-02-25T19:05:26;3.20;95.30
23233;DHT22;11785;49.500;8.288;2023-02-25T19:07:53;3.30;94.70
23233;DHT22;11785;49.500;8.288;2023-02-25T19:10:22;3.30;94.30
23233;DHT22;11785;49.500;8.288;2023-02-25T19:12:49;3.30;94.00
23233;DHT22;11785;49.500;8.288;2023-02-25T19:15:18;3.40;93.20
23233;DHT22;11785;49.500;8.288;2023-02-25T19:17:45;3.50;91.50
23233;DHT22;11785;49.500;8.288;2023-02-25T19:20:12;3.50;89.70
23233;DHT22;11785;49.500;8.288;2023-02-25T19:22:46;3.60;87.80
23233;DHT22;11785;49.500;8.288;2023-02-25T19:25:25;3.60;87.80
23233;DHT22;11785;49.500;8.288;2023-02-25T19:27:52;3.60;86.70
23233;DHT22;11785;49.500;8.288;2023-02-25T19:30:22;3.50;88.20
23233;DHT22;11785;49.500;8.288;2023-02-25T19:32:47;3.40;88.20
23233;DHT22;11785;49.500;8.288;2023-02-25T19:35:13;3.40;87.80
23233;DHT22;11785;49.500;8.288;2023-02-25T19:37:41;3.30;89.40
23233;DHT22;11785;49.500;8.288;2023-02-25T19:40:10;3.20;89.90
23233;DHT22;11785;49.500;8.288;2023-02-25T19:42:37;3.20;89.90
23233;DHT22;11785;49.500;8.288;2023-02-25T19:45:04;3.20;87.90
23233;DHT22;11785;49.500;8.288;2023-02-25T19:47:31;3.20;89.50
23233;DHT22;11785;49.500;8.288;2023-02-25T19:49:56;3.20;89.10
23233;DHT22;11785;49.500;8.288;2023-02-25T19:52:22;3.20;88.80
23233;DHT22;11785;49.500;8.288;2023-02-25T19:54:48;3.10;89.80
23233;DHT22;11785;49.500;8.288;2023-02-25T19:57:14;3.20;88.40
23233;DHT22;11785;49.500;8.288;2023-02-25T19:59:39;3.10;89.30
23233;DHT22;11785;49.500;8.288;2023-02-25T20:02:05;2.90;90.10
23233;DHT22;11785;49.500;8.288;2023-02-25T20:04:31;2.90;89.90